Terminal Aerodrome Forecast
Issued by NWS Greer, SC

Home | Current Version | Previous Version | Text Only | Print | Product List | Glossary On
Versions: 1 2 3 4 5 6 7 8 9 10 11 12 13 14 15 16 17 18 19 20 21 22 23 24 25 26 27 28 29 30 31 32 33 34 35 36 37 38 39 40 41 42 43 44 45 46 47
431
FTUS42 KGSP 142108 AAA
TAFCLT
TAF AMD
KCLT 142108Z 1421/1518 10006KT P6SM OVC070
     FM150300 07006KT P6SM BKN040 OVC070
      TEMPO 1505/1509 4SM -SNPL BKN025 OVC040
     FM150900 06006KT P6SM SCT015 OVC035 PROB30 1509/1513 4SM
      -FZRAPL OVC015
     FM151300 05006KT 6SM -FZRA OVC008=

USA.gov is the U.S. government's official web portal to all federal, state and local government web resources and services.